sensor_id;sensor_type;location;lat;lon;timestamp;pressure;altitude;pressure_sealevel;temperature;humidity
1926;BME280;964;42.606;23.588;2022-07-15T00:01:58;94604.88;;;36.70;24.29
1926;BME280;964;42.606;23.588;2022-07-15T00:04:25;94603.44;;;36.63;24.16
1926;BME280;964;42.606;23.588;2022-07-15T00:06:51;94602.78;;;36.52;24.97
1926;BME280;964;42.606;23.588;2022-07-15T00:09:19;94600.72;;;36.82;24.37
1926;BME280;964;42.606;23.588;2022-07-15T00:12:06;94609.94;;;36.90;24.52
1926;BME280;964;42.606;23.588;2022-07-15T00:14:33;94607.81;;;36.23;24.50
1926;BME280;964;42.606;23.588;2022-07-15T00:17:00;94622.41;;;36.18;24.79
1926;BME280;964;42.606;23.588;2022-07-15T00:19:27;94612.94;;;36.68;24.70
1926;BME280;964;42.606;23.588;2022-07-15T00:21:54;94612.59;;;36.47;24.24
1926;BME280;964;42.606;23.588;2022-07-15T00:24:22;94603.34;;;37.17;23.91
1926;BME280;964;42.606;23.588;2022-07-15T00:26:49;94614.28;;;37.47;23.84
1926;BME280;964;42.606;23.588;2022-07-15T00:29:15;94613.59;;;36.98;23.57
1926;BME280;964;42.606;23.588;2022-07-15T00:31:42;94611.31;;;36.78;24.58
1926;BME280;964;42.606;23.588;2022-07-15T00:34:09;94605.31;;;37.22;24.18
1926;BME280;964;42.606;23.588;2022-07-15T00:36:35;94619.38;;;37.00;23.70
1926;BME280;964;42.606;23.588;2022-07-15T00:39:02;94611.66;;;36.93;24.44
1926;BME280;964;42.606;23.588;2022-07-15T00:41:36;94610.72;;;37.09;24.29
1926;BME280;964;42.606;23.588;2022-07-15T00:44:03;94617.84;;;37.05;23.83
1926;BME280;964;42.606;23.588;2022-07-15T00:46:31;94622.25;;;36.05;24.63
1926;BME280;964;42.606;23.588;2022-07-15T00:48:58;94619.88;;;35.85;25.09
1926;BME280;964;42.606;23.588;2022-07-15T00:51:25;94608.44;;;36.05;24.94
1926;BME280;964;42.606;23.588;2022-07-15T00:53:54;94603.84;;;36.73;24.22
1926;BME280;964;42.606;23.588;2022-07-15T00:56:23;94608.00;;;36.61;24.27
1926;BME280;964;42.606;23.588;2022-07-15T00:58:54;94609.47;;;36.62;24.56
1926;BME280;964;42.606;23.588;2022-07-15T01:01:22;94603.03;;;36.54;24.09
1926;BME280;964;42.606;23.588;2022-07-15T01:03:49;94603.22;;;37.28;23.83
1926;BME280;964;42.606;23.588;2022-07-15T01:06:16;94604.25;;;37.25;23.68
1926;BME280;964;42.606;23.588;2022-07-15T01:08:43;94597.97;;;37.44;23.30
1926;BME280;964;42.606;23.588;2022-07-15T01:11:10;94602.94;;;37.51;23.57
1926;BME280;964;42.606;23.588;2022-07-15T01:13:37;94592.91;;;37.66;22.87
1926;BME280;964;42.606;23.588;2022-07-15T01:16:05;94592.94;;;36.32;24.49
1926;BME280;964;42.606;23.588;2022-07-15T01:18:32;94594.03;;;36.48;23.89
1926;BME280;964;42.606;23.588;2022-07-15T01:21:01;94585.41;;;37.05;23.96
1926;BME280;964;42.606;23.588;2022-07-15T01:23:28;94588.75;;;37.60;23.38
1926;BME280;964;42.606;23.588;2022-07-15T01:25:55;94587.31;;;36.92;23.49
1926;BME280;964;42.606;23.588;2022-07-15T01:28:22;94590.31;;;36.15;24.67
1926;BME280;964;42.606;23.588;2022-07-15T01:30:49;94589.47;;;36.26;24.43
1926;BME280;964;42.606;23.588;2022-07-15T01:33:16;94587.84;;;35.76;24.82
1926;BME280;964;42.606;23.588;2022-07-15T01:35:43;94589.69;;;35.57;25.56
1926;BME280;964;42.606;23.588;2022-07-15T01:38:11;94583.22;;;35.55;26.05
1926;BME280;964;42.606;23.588;2022-07-15T01:40:38;94578.53;;;35.44;26.15
1926;BME280;964;42.606;23.588;2022-07-15T01:43:04;94594.50;;;35.51;25.60
1926;BME280;964;42.606;23.588;2022-07-15T01:45:31;94578.25;;;35.48;26.07
1926;BME280;964;42.606;23.588;2022-07-15T01:47:58;94582.75;;;35.86;25.88
1926;BME280;964;42.606;23.588;2022-07-15T01:50:25;94573.94;;;36.23;24.74
1926;BME280;964;42.606;23.588;2022-07-15T01:52:51;94584.59;;;36.13;24.98
1926;BME280;964;42.606;23.588;2022-07-15T01:55:19;94577.19;;;36.51;24.83
1926;BME280;964;42.606;23.588;2022-07-15T01:57:46;94578.13;;;36.00;25.26
1926;BME280;964;42.606;23.588;2022-07-15T02:00:13;94575.53;;;36.43;24.50
1926;BME280;964;42.606;23.588;2022-07-15T02:02:41;94569.94;;;36.24;25.14
1926;BME280;964;42.606;23.588;2022-07-15T02:05:08;94579.00;;;36.19;25.02
1926;BME280;964;42.606;23.588;2022-07-15T02:07:35;94583.00;;;36.18;25.26
1926;BME280;964;42.606;23.588;2022-07-15T02:10:04;94581.13;;;35.72;25.91
1926;BME280;964;42.606;23.588;2022-07-15T02:12:32;94581.75;;;36.19;24.88
1926;BME280;964;42.606;23.588;2022-07-15T02:14:59;94588.97;;;36.52;24.47
1926;BME280;964;42.606;23.588;2022-07-15T02:17:26;94587.53;;;36.94;23.95
1926;BME280;964;42.606;23.588;2022-07-15T02:19:52;94587.13;;;36.84;24.65
1926;BME280;964;42.606;23.588;2022-07-15T02:22:19;94599.94;;;36.63;24.75
1926;BME280;964;42.606;23.588;2022-07-15T02:24:46;94594.38;;;36.87;24.48
1926;BME280;964;42.606;23.588;2022-07-15T02:27:13;94598.06;;;36.95;24.28
1926;BME280;964;42.606;23.588;2022-07-15T02:29:41;94596.25;;;36.79;23.83
1926;BME280;964;42.606;23.588;2022-07-15T02:32:08;94590.31;;;36.69;24.00
1926;BME280;964;42.606;23.588;2022-07-15T02:34:35;94590.13;;;36.37;24.66
1926;BME280;964;42.606;23.588;2022-07-15T02:37:01;94588.81;;;35.84;25.17
1926;BME280;964;42.606;23.588;2022-07-15T02:39:28;94591.72;;;36.27;24.94
1926;BME280;964;42.606;23.588;2022-07-15T02:41:56;94579.19;;;36.51;24.49
1926;BME280;964;42.606;23.588;2022-07-15T02:44:22;94583.00;;;36.18;24.99
1926;BME280;964;42.606;23.588;2022-07-15T02:46:51;94587.53;;;36.94;24.71
1926;BME280;964;42.606;23.588;2022-07-15T02:49:17;94586.09;;;36.87;24.32
1926;BME280;964;42.606;23.588;2022-07-15T02:51:44;94587.78;;;36.71;24.92
1926;BME280;964;42.606;23.588;2022-07-15T02:54:11;94590.81;;;36.44;24.57
1926;BME280;964;42.606;23.588;2022-07-15T02:56:37;94588.75;;;36.74;24.57
1926;BME280;964;42.606;23.588;2022-07-15T02:59:04;94585.66;;;36.83;24.26
1926;BME280;964;42.606;23.588;2022-07-15T03:01:31;94586.47;;;36.54;24.41
1926;BME280;964;42.606;23.588;2022-07-15T03:03:59;94589.53;;;36.45;24.33
1926;BME280;964;42.606;23.588;2022-07-15T03:06:25;94580.94;;;36.54;24.50
1926;BME280;964;42.606;23.588;2022-07-15T03:08:52;94587.13;;;36.35;24.88
1926;BME280;964;42.606;23.588;2022-07-15T03:11:19;94588.38;;;36.10;24.66
1926;BME280;964;42.606;23.588;2022-07-15T03:13:46;94580.78;;;36.41;24.60
1926;BME280;964;42.606;23.588;2022-07-15T03:16:12;94577.84;;;36.33;25.27
1926;BME280;964;42.606;23.588;2022-07-15T03:18:39;94582.19;;;36.53;25.08
1926;BME280;964;42.606;23.588;2022-07-15T03:21:07;94582.69;;;35.62;25.22
1926;BME280;964;42.606;23.588;2022-07-15T03:23:34;94579.81;;;35.78;25.10
1926;BME280;964;42.606;23.588;2022-07-15T03:26:01;94581.97;;;35.91;25.70
1926;BME280;964;42.606;23.588;2022-07-15T03:28:27;94571.56;;;36.08;25.45
1926;BME280;964;42.606;23.588;2022-07-15T03:30:54;94573.06;;;36.09;24.93
1926;BME280;964;42.606;23.588;2022-07-15T03:33:21;94566.34;;;36.59;24.74
1926;BME280;964;42.606;23.588;2022-07-15T03:35:47;94561.13;;;36.25;25.56
1926;BME280;964;42.606;23.588;2022-07-15T03:38:15;94567.84;;;36.30;25.55
1926;BME280;964;42.606;23.588;2022-07-15T03:40:42;94567.81;;;37.08;24.54
1926;BME280;964;42.606;23.588;2022-07-15T03:43:09;94562.38;;;36.97;24.52
1926;BME280;964;42.606;23.588;2022-07-15T03:45:36;94565.09;;;37.21;24.06
1926;BME280;964;42.606;23.588;2022-07-15T03:48:03;94559.28;;;37.44;23.69
1926;BME280;964;42.606;23.588;2022-07-15T03:50:30;94561.03;;;37.78;23.77
1926;BME280;964;42.606;23.588;2022-07-15T03:52:57;94562.56;;;37.61;23.88
1926;BME280;964;42.606;23.588;2022-07-15T03:55:26;94558.63;;;37.88;23.73
1926;BME280;964;42.606;23.588;2022-07-15T03:57:52;94569.88;;;37.77;24.03
1926;BME280;964;42.606;23.588;2022-07-15T04:00:20;94565.63;;;37.89;23.59
1926;BME280;964;42.606;23.588;2022-07-15T04:02:47;94559.31;;;38.07;22.95
1926;BME280;964;42.606;23.588;2022-07-15T04:05:14;94563.00;;;38.28;23.30
1926;BME280;964;42.606;23.588;2022-07-15T04:07:40;94565.72;;;38.02;23.21
1926;BME280;964;42.606;23.588;2022-07-15T04:10:08;94567.88;;;38.22;22.84
1926;BME280;964;42.606;23.588;2022-07-15T04:12:36;94563.84;;;38.37;22.99
1926;BME280;964;42.606;23.588;2022-07-15T04:15:03;94574.34;;;38.57;22.88
1926;BME280;964;42.606;23.588;2022-07-15T04:17:30;94565.09;;;38.22;23.00
1926;BME280;964;42.606;23.588;2022-07-15T04:19:57;94560.69;;;38.46;23.00
1926;BME280;964;42.606;23.588;2022-07-15T04:22:23;94563.03;;;38.81;23.16
1926;BME280;964;42.606;23.588;2022-07-15T04:24:50;94563.66;;;38.48;23.99
1926;BME280;964;42.606;23.588;2022-07-15T04:27:17;94563.47;;;38.59;23.24
1926;BME280;964;42.606;23.588;2022-07-15T04:29:45;94569.56;;;38.25;23.69
1926;BME280;964;42.606;23.588;2022-07-15T04:32:12;94564.75;;;38.00;23.89
1926;BME280;964;42.606;23.588;2022-07-15T04:34:39;94569.66;;;38.52;23.73
1926;BME280;964;42.606;23.588;2022-07-15T04:37:05;94570.88;;;38.38;24.05
1926;BME280;964;42.606;23.588;2022-07-15T04:39:32;94573.94;;;38.92;23.22
1926;BME280;964;42.606;23.588;2022-07-15T04:41:59;94570.28;;;39.23;23.02
1926;BME280;964;42.606;23.588;2022-07-15T04:44:25;94571.16;;;39.05;23.52
1926;BME280;964;42.606;23.588;2022-07-15T04:46:54;94581.59;;;38.47;24.31
1926;BME280;964;42.606;23.588;2022-07-15T04:49:20;94573.00;;;38.32;24.60
1926;BME280;964;42.606;23.588;2022-07-15T04:52:05;94570.72;;;38.75;24.27
1926;BME280;964;42.606;23.588;2022-07-15T04:54:31;94572.22;;;38.76;24.20
1926;BME280;964;42.606;23.588;2022-07-15T04:56:58;94577.75;;;39.02;24.05
1926;BME280;964;42.606;23.588;2022-07-15T04:59:25;94578.31;;;38.88;23.77
1926;BME280;964;42.606;23.588;2022-07-15T05:01:53;94581.78;;;39.28;24.06
1926;BME280;964;42.606;23.588;2022-07-15T05:04:20;94576.47;;;39.16;24.12
1926;BME280;964;42.606;23.588;2022-07-15T05:06:47;94591.59;;;38.63;24.24
1926;BME280;964;42.606;23.588;2022-07-15T05:09:14;94590.13;;;39.14;24.09
1926;BME280;964;42.606;23.588;2022-07-15T05:11:40;94586.03;;;39.42;23.99
1926;BME280;964;42.606;23.588;2022-07-15T05:14:07;94589.03;;;39.17;24.12
1926;BME280;964;42.606;23.588;2022-07-15T05:16:34;94582.25;;;39.86;23.17
1926;BME280;964;42.606;23.588;2022-07-15T05:19:02;94586.28;;;39.31;23.95
1926;BME280;964;42.606;23.588;2022-07-15T05:21:29;94581.13;;;40.02;23.01
1926;BME280;964;42.606;23.588;2022-07-15T05:23:56;94578.47;;;40.59;22.49
1926;BME280;964;42.606;23.588;2022-07-15T05:26:23;94581.91;;;40.52;22.87
1926;BME280;964;42.606;23.588;2022-07-15T05:28:49;94583.00;;;40.49;22.80
1926;BME280;964;42.606;23.588;2022-07-15T05:31:17;94577.34;;;40.34;22.64
1926;BME280;964;42.606;23.588;2022-07-15T05:33:43;94577.44;;;40.49;22.42
1926;BME280;964;42.606;23.588;2022-07-15T05:36:12;94574.63;;;40.70;22.64
1926;BME280;964;42.606;23.588;2022-07-15T05:38:39;94577.09;;;40.52;22.17
1926;BME280;964;42.606;23.588;2022-07-15T05:41:06;94577.72;;;40.38;22.10
1926;BME280;964;42.606;23.588;2022-07-15T05:43:32;94583.97;;;40.31;22.24
1926;BME280;964;42.606;23.588;2022-07-15T05:45:59;94573.34;;;41.35;21.51
1926;BME280;964;42.606;23.588;2022-07-15T05:48:26;94571.59;;;40.88;22.35
1926;BME280;964;42.606;23.588;2022-07-15T05:50:53;94580.34;;;40.92;22.67
1926;BME280;964;42.606;23.588;2022-07-15T05:53:21;94575.84;;;41.61;22.21
1926;BME280;964;42.606;23.588;2022-07-15T05:55:48;94579.34;;;41.10;21.56
1926;BME280;964;42.606;23.588;2022-07-15T05:58:15;94574.94;;;41.66;21.61
1926;BME280;964;42.606;23.588;2022-07-15T06:00:42;94573.97;;;41.56;21.60
1926;BME280;964;42.606;23.588;2022-07-15T06:03:09;94577.00;;;40.94;22.16
1926;BME280;964;42.606;23.588;2022-07-15T06:05:36;94573.34;;;41.86;21.36
1926;BME280;964;42.606;23.588;2022-07-15T06:08:03;94571.78;;;41.77;21.38
1926;BME280;964;42.606;23.588;2022-07-15T06:10:31;94580.28;;;41.49;21.35
1926;BME280;964;42.606;23.588;2022-07-15T06:12:58;94573.34;;;42.08;21.24
1926;BME280;964;42.606;23.588;2022-07-15T06:15:25;94574.13;;;42.39;21.06
1926;BME280;964;42.606;23.588;2022-07-15T06:17:51;94581.91;;;42.18;21.25
1926;BME280;964;42.606;23.588;2022-07-15T06:20:19;94580.03;;;42.05;20.74
1926;BME280;964;42.606;23.588;2022-07-15T06:22:46;94575.09;;;41.53;21.67
1926;BME280;964;42.606;23.588;2022-07-15T06:25:13;94579.69;;;42.24;20.27
1926;BME280;964;42.606;23.588;2022-07-15T06:27:41;94572.06;;;42.55;20.88
1926;BME280;964;42.606;23.588;2022-07-15T06:30:08;94570.72;;;42.86;20.38
1926;BME280;964;42.606;23.588;2022-07-15T06:32:36;94565.38;;;43.28;20.11
1926;BME280;964;42.606;23.588;2022-07-15T06:35:03;94564.56;;;43.03;19.41
1926;BME280;964;42.606;23.588;2022-07-15T06:37:30;94563.84;;;43.50;19.46
1926;BME280;964;42.606;23.588;2022-07-15T06:39:57;94570.72;;;43.49;19.16
1926;BME280;964;42.606;23.588;2022-07-15T06:42:24;94573.09;;;43.60;19.10
1926;BME280;964;42.606;23.588;2022-07-15T06:44:52;94574.66;;;43.38;19.54
1926;BME280;964;42.606;23.588;2022-07-15T06:47:19;94564.72;;;43.92;18.95
1926;BME280;964;42.606;23.588;2022-07-15T06:49:46;94563.03;;;44.22;18.67
1926;BME280;964;42.606;23.588;2022-07-15T06:52:14;94556.91;;;44.82;18.67
1926;BME280;964;42.606;23.588;2022-07-15T06:54:41;94552.38;;;44.45;19.47
1926;BME280;964;42.606;23.588;2022-07-15T06:57:08;94552.13;;;44.92;18.70
1926;BME280;964;42.606;23.588;2022-07-15T06:59:35;94548.81;;;44.52;18.68
1926;BME280;964;42.606;23.588;2022-07-15T07:02:03;94543.59;;;45.08;19.14
1926;BME280;964;42.606;23.588;2022-07-15T07:04:30;94549.66;;;43.88;19.95
1926;BME280;964;42.606;23.588;2022-07-15T07:06:56;94548.97;;;44.54;19.48
1926;BME280;964;42.606;23.588;2022-07-15T07:09:23;94546.69;;;44.95;19.01
1926;BME280;964;42.606;23.588;2022-07-15T07:11:50;94549.94;;;45.52;18.42
1926;BME280;964;42.606;23.588;2022-07-15T07:14:17;94555.41;;;45.33;18.43
1926;BME280;964;42.606;23.588;2022-07-15T07:16:43;94558.97;;;45.16;19.29
1926;BME280;964;42.606;23.588;2022-07-15T07:19:12;94550.66;;;45.43;18.08
1926;BME280;964;42.606;23.588;2022-07-15T07:21:39;94556.06;;;46.12;18.33
1926;BME280;964;42.606;23.588;2022-07-15T07:24:06;94558.44;;;45.89;18.08
1926;BME280;964;42.606;23.588;2022-07-15T07:26:33;94556.09;;;46.31;17.75
1926;BME280;964;42.606;23.588;2022-07-15T07:29:00;94554.88;;;46.15;17.57
1926;BME280;964;42.606;23.588;2022-07-15T07:31:27;94550.66;;;45.43;18.77
1926;BME280;964;42.606;23.588;2022-07-15T07:33:53;94552.00;;;45.52;18.08
1926;BME280;964;42.606;23.588;2022-07-15T07:36:22;94552.63;;;46.50;17.49
1926;BME280;964;42.606;23.588;2022-07-15T07:38:49;94546.66;;;46.36;17.66
1926;BME280;964;42.606;23.588;2022-07-15T07:41:16;94550.63;;;47.08;17.77
1926;BME280;964;42.606;23.588;2022-07-15T07:43:42;94536.31;;;47.33;17.84
1926;BME280;964;42.606;23.588;2022-07-15T07:46:10;94536.78;;;47.29;18.33
1926;BME280;964;42.606;23.588;2022-07-15T07:48:37;94525.19;;;47.44;17.51
1926;BME280;964;42.606;23.588;2022-07-15T07:51:05;94531.16;;;47.29;17.30
1926;BME280;964;42.606;23.588;2022-07-15T07:53:33;94536.75;;;47.10;17.39
1926;BME280;964;42.606;23.588;2022-07-15T07:56:00;94529.34;;;48.03;17.13
1926;BME280;964;42.606;23.588;2022-07-15T07:58:27;94524.41;;;48.44;17.58
1926;BME280;964;42.606;23.588;2022-07-15T08:00:54;94518.63;;;48.73;16.59
1926;BME280;964;42.606;23.588;2022-07-15T08:03:21;94521.28;;;48.49;16.29
1926;BME280;964;42.606;23.588;2022-07-15T08:05:47;94524.34;;;48.53;16.33
1926;BME280;964;42.606;23.588;2022-07-15T08:08:15;94526.91;;;48.92;15.58
1926;BME280;964;42.606;23.588;2022-07-15T08:10:47;94521.53;;;49.50;17.53
1926;BME280;964;42.606;23.588;2022-07-15T08:13:14;94533.91;;;49.24;16.37
1926;BME280;964;42.606;23.588;2022-07-15T08:15:42;94522.59;;;47.77;17.07
1926;BME280;964;42.606;23.588;2022-07-15T08:18:09;94520.44;;;48.06;17.21
1926;BME280;964;42.606;23.588;2022-07-15T08:20:36;94519.78;;;47.87;16.90
1926;BME280;964;42.606;23.588;2022-07-15T08:23:04;94513.16;;;48.44;16.34
1926;BME280;964;42.606;23.588;2022-07-15T08:25:33;94512.78;;;49.01;16.33
1926;BME280;964;42.606;23.588;2022-07-15T08:28:04;94506.66;;;49.82;15.88
1926;BME280;964;42.606;23.588;2022-07-15T08:30:31;94507.53;;;50.08;15.87
1926;BME280;964;42.606;23.588;2022-07-15T08:32:59;94502.50;;;50.41;15.04
1926;BME280;964;42.606;23.588;2022-07-15T08:35:27;94509.56;;;51.39;14.98
1926;BME280;964;42.606;23.588;2022-07-15T08:37:54;94509.84;;;50.00;16.49
1926;BME280;964;42.606;23.588;2022-07-15T08:40:21;94514.06;;;48.89;16.44
1926;BME280;964;42.606;23.588;2022-07-15T08:42:49;94510.75;;;49.46;16.72
1926;BME280;964;42.606;23.588;2022-07-15T08:45:18;94503.38;;;50.21;16.35
1926;BME280;964;42.606;23.588;2022-07-15T08:47:46;94504.94;;;49.00;16.39
1926;BME280;964;42.606;23.588;2022-07-15T08:50:14;94500.06;;;50.84;16.49
1926;BME280;964;42.606;23.588;2022-07-15T08:52:44;94500.03;;;50.47;15.17
1926;BME280;964;42.606;23.588;2022-07-15T08:55:12;94492.19;;;50.46;15.24
1926;BME280;964;42.606;23.588;2022-07-15T08:57:40;94499.06;;;50.20;15.53
1926;BME280;964;42.606;23.588;2022-07-15T09:00:11;94486.06;;;49.80;15.99
1926;BME280;964;42.606;23.588;2022-07-15T09:02:40;94487.25;;;48.88;16.01
1926;BME280;964;42.606;23.588;2022-07-15T09:05:18;94489.25;;;50.44;14.72
1926;BME280;964;42.606;23.588;2022-07-15T09:08:06;94473.72;;;51.05;15.66
1926;BME280;964;42.606;23.588;2022-07-15T09:10:47;94480.19;;;49.76;16.70
1926;BME280;964;42.606;23.588;2022-07-15T09:13:24;94481.63;;;50.00;16.75
1926;BME280;964;42.606;23.588;2022-07-15T09:15:52;94481.63;;;50.46;15.46
1926;BME280;964;42.606;23.588;2022-07-15T09:18:23;94475.63;;;49.94;15.62
1926;BME280;964;42.606;23.588;2022-07-15T09:20:51;94477.22;;;49.97;16.87
1926;BME280;964;42.606;23.588;2022-07-15T09:23:20;94473.88;;;50.47;16.43
1926;BME280;964;42.606;23.588;2022-07-15T09:25:49;94477.97;;;49.97;15.98
1926;BME280;964;42.606;23.588;2022-07-15T09:28:16;94473.78;;;50.33;16.16
1926;BME280;964;42.606;23.588;2022-07-15T09:30:44;94474.34;;;49.06;15.00
1926;BME280;964;42.606;23.588;2022-07-15T09:33:31;94473.28;;;50.25;14.55
1926;BME280;964;42.606;23.588;2022-07-15T09:36:15;94467.38;;;50.93;14.29
1926;BME280;964;42.606;23.588;2022-07-15T09:38:44;94475.44;;;50.62;14.53
1926;BME280;964;42.606;23.588;2022-07-15T09:41:15;94457.97;;;52.32;16.44
1926;BME280;964;42.606;23.588;2022-07-15T09:43:48;94463.09;;;51.42;15.39
1926;BME280;964;42.606;23.588;2022-07-15T09:46:17;94459.50;;;51.28;13.99
1926;BME280;964;42.606;23.588;2022-07-15T09:48:47;94465.16;;;50.54;16.33
1926;BME280;964;42.606;23.588;2022-07-15T09:51:15;94459.94;;;51.36;14.75
1926;BME280;964;42.606;23.588;2022-07-15T09:53:43;94459.16;;;50.97;14.63
1926;BME280;964;42.606;23.588;2022-07-15T09:56:12;94466.31;;;48.91;15.22
1926;BME280;964;42.606;23.588;2022-07-15T09:58:40;94465.63;;;49.35;16.60
1926;BME280;964;42.606;23.588;2022-07-15T10:01:09;94462.47;;;49.52;17.28
1926;BME280;964;42.606;23.588;2022-07-15T10:03:37;94453.69;;;49.81;15.74
1926;BME280;964;42.606;23.588;2022-07-15T10:06:05;94455.88;;;50.17;14.38
1926;BME280;964;42.606;23.588;2022-07-15T10:08:34;94463.75;;;48.95;16.45
1926;BME280;964;42.606;23.588;2022-07-15T10:11:08;94460.31;;;50.69;14.55
1926;BME280;964;42.606;23.588;2022-07-15T10:13:48;94457.22;;;51.38;14.58
1926;BME280;964;42.606;23.588;2022-07-15T10:16:31;94450.84;;;51.77;14.04
1926;BME280;964;42.606;23.588;2022-07-15T10:19:11;94451.69;;;52.48;15.57
1926;BME280;964;42.606;23.588;2022-07-15T10:21:48;94448.22;;;52.22;13.36
1926;BME280;964;42.606;23.588;2022-07-15T10:24:38;94437.66;;;52.22;15.00
1926;BME280;964;42.606;23.588;2022-07-15T10:30:10;94453.16;;;50.91;14.26
1926;BME280;964;42.606;23.588;2022-07-15T10:33:05;94454.09;;;50.70;14.46
1926;BME280;964;42.606;23.588;2022-07-15T10:35:36;94452.59;;;51.31;13.44
1926;BME280;964;42.606;23.588;2022-07-15T10:38:23;94437.00;;;52.65;13.65
1926;BME280;964;42.606;23.588;2022-07-15T10:41:04;94455.00;;;50.49;13.73
1926;BME280;964;42.606;23.588;2022-07-15T10:43:48;94436.31;;;52.23;14.21
1926;BME280;964;42.606;23.588;2022-07-15T10:46:23;94428.31;;;53.19;13.09
1926;BME280;964;42.606;23.588;2022-07-15T10:48:53;94430.44;;;53.34;12.21
1926;BME280;964;42.606;23.588;2022-07-15T10:51:44;94425.19;;;53.74;11.83
1926;BME280;964;42.606;23.588;2022-07-15T10:57:53;94428.13;;;52.02;13.01
1926;BME280;964;42.606;23.588;2022-07-15T11:00:31;94423.38;;;52.48;12.86
1926;BME280;964;42.606;23.588;2022-07-15T11:03:04;94417.59;;;53.18;12.15
1926;BME280;964;42.606;23.588;2022-07-15T11:05:31;94422.84;;;51.69;12.46
1926;BME280;964;42.606;23.588;2022-07-15T11:07:58;94413.03;;;52.38;12.16
1926;BME280;964;42.606;23.588;2022-07-15T11:10:25;94414.41;;;52.37;12.05
1926;BME280;964;42.606;23.588;2022-07-15T11:12:58;94418.88;;;53.15;11.02
1926;BME280;964;42.606;23.588;2022-07-15T11:15:26;94418.06;;;52.83;11.24
1926;BME280;964;42.606;23.588;2022-07-15T11:17:54;94422.94;;;51.58;12.30
1926;BME280;964;42.606;23.588;2022-07-15T11:20:24;94412.06;;;52.48;11.57
1926;BME280;964;42.606;23.588;2022-07-15T11:22:53;94419.03;;;52.17;12.90
1926;BME280;964;42.606;23.588;2022-07-15T11:25:22;94406.50;;;52.50;12.61
1926;BME280;964;42.606;23.588;2022-07-15T11:28:06;94422.78;;;51.03;13.37
1926;BME280;964;42.606;23.588;2022-07-15T11:30:36;94404.19;;;52.89;11.42
1926;BME280;964;42.606;23.588;2022-07-15T11:33:06;94405.00;;;53.21;11.59
1926;BME280;964;42.606;23.588;2022-07-15T11:35:43;94405.06;;;52.35;12.15
1926;BME280;964;42.606;23.588;2022-07-15T11:38:10;94426.53;;;51.72;12.67
1926;BME280;964;42.606;23.588;2022-07-15T11:40:44;94406.41;;;53.36;11.87
1926;BME280;964;42.606;23.588;2022-07-15T11:43:29;94403.75;;;53.40;12.89
1926;BME280;964;42.606;23.588;2022-07-15T11:46:14;94395.34;;;53.42;13.39
1926;BME280;964;42.606;23.588;2022-07-15T11:48:41;94403.34;;;51.09;13.18
1926;BME280;964;42.606;23.588;2022-07-15T11:51:10;94393.44;;;52.43;12.79
1926;BME280;964;42.606;23.588;2022-07-15T11:53:38;94380.97;;;53.85;12.30
1926;BME280;964;42.606;23.588;2022-07-15T11:56:06;94400.75;;;51.66;13.44
1926;BME280;964;42.606;23.588;2022-07-15T11:58:37;94389.78;;;52.13;13.69
1926;BME280;964;42.606;23.588;2022-07-15T12:01:05;94401.78;;;50.69;13.59
1926;BME280;964;42.606;23.588;2022-07-15T12:03:35;94389.56;;;51.81;12.70
1926;BME280;964;42.606;23.588;2022-07-15T12:06:06;94405.94;;;50.80;12.82
1926;BME280;964;42.606;23.588;2022-07-15T12:08:41;94391.31;;;50.46;13.41
1926;BME280;964;42.606;23.588;2022-07-15T12:11:19;94379.50;;;52.19;12.28
1926;BME280;964;42.606;23.588;2022-07-15T12:13:56;94382.66;;;51.18;13.59
1926;BME280;964;42.606;23.588;2022-07-15T12:16:26;94396.81;;;49.38;14.70
1926;BME280;964;42.606;23.588;2022-07-15T12:18:54;94388.63;;;50.48;13.63
1926;BME280;964;42.606;23.588;2022-07-15T12:21:21;94386.63;;;51.13;14.31
1926;BME280;964;42.606;23.588;2022-07-15T12:24:00;94379.56;;;51.00;13.47
1926;BME280;964;42.606;23.588;2022-07-15T12:26:27;94376.38;;;52.13;14.43
1926;BME280;964;42.606;23.588;2022-07-15T12:28:57;94378.50;;;53.14;13.82
1926;BME280;964;42.606;23.588;2022-07-15T12:31:25;94367.56;;;53.69;12.90
1926;BME280;964;42.606;23.588;2022-07-15T12:33:52;94368.75;;;54.13;12.78
1926;BME280;964;42.606;23.588;2022-07-15T12:36:21;94374.94;;;53.61;13.81
1926;BME280;964;42.606;23.588;2022-07-15T12:39:12;94370.81;;;53.17;12.83
1926;BME280;964;42.606;23.588;2022-07-15T12:41:40;94371.75;;;53.84;12.33
1926;BME280;964;42.606;23.588;2022-07-15T12:44:09;94367.31;;;52.44;13.34
1926;BME280;964;42.606;23.588;2022-07-15T12:46:56;94364.94;;;53.91;13.54
1926;BME280;964;42.606;23.588;2022-07-15T12:49:48;94371.84;;;54.19;13.82
1926;BME280;964;42.606;23.588;2022-07-15T12:52:25;94374.91;;;52.69;13.88
1926;BME280;964;42.606;23.588;2022-07-15T12:54:56;94370.63;;;54.07;12.81
1926;BME280;964;42.606;23.588;2022-07-15T12:57:28;94371.06;;;54.01;12.22
1926;BME280;964;42.606;23.588;2022-07-15T12:59:59;94366.78;;;54.51;11.67
1926;BME280;964;42.606;23.588;2022-07-15T13:02:27;94364.59;;;54.50;12.64
1926;BME280;964;42.606;23.588;2022-07-15T13:04:54;94388.00;;;50.01;13.83
1926;BME280;964;42.606;23.588;2022-07-15T13:07:21;94386.41;;;50.47;13.83
1926;BME280;964;42.606;23.588;2022-07-15T13:09:48;94366.84;;;52.20;13.22
1926;BME280;964;42.606;23.588;2022-07-15T13:12:15;94353.28;;;53.52;12.36
1926;BME280;964;42.606;23.588;2022-07-15T13:14:42;94357.25;;;54.60;12.16
1926;BME280;964;42.606;23.588;2022-07-15T13:17:11;94355.22;;;54.63;13.04
1926;BME280;964;42.606;23.588;2022-07-15T13:19:37;94365.00;;;55.13;12.17
1926;BME280;964;42.606;23.588;2022-07-15T13:22:04;94364.53;;;52.03;12.46
1926;BME280;964;42.606;23.588;2022-07-15T13:24:31;94375.31;;;51.13;13.12
1926;BME280;964;42.606;23.588;2022-07-15T13:26:58;94365.81;;;51.73;12.36
1926;BME280;964;42.606;23.588;2022-07-15T13:29:25;94364.88;;;52.81;12.77
1926;BME280;964;42.606;23.588;2022-07-15T13:31:51;94373.13;;;51.51;13.23
1926;BME280;964;42.606;23.588;2022-07-15T13:34:20;94374.47;;;52.18;13.72
1926;BME280;964;42.606;23.588;2022-07-15T13:36:46;94358.00;;;52.42;12.73
1926;BME280;964;42.606;23.588;2022-07-15T13:39:13;94349.66;;;53.33;12.85